sensor_id;sensor_type;location;lat;lon;timestamp;P1;durP1;ratioP1;P2;durP2;ratioP2
70420;SDS011;57848;51.938;15.520;2023-02-15T00:01:29;44.40;;;17.80;;
70420;SDS011;57848;51.938;15.520;2023-02-15T00:03:55;49.60;;;19.88;;
70420;SDS011;57848;51.938;15.520;2023-02-15T00:06:21;46.97;;;17.83;;
70420;SDS011;57848;51.938;15.520;2023-02-15T00:08:46;46.45;;;19.08;;
70420;SDS011;57848;51.938;15.520;2023-02-15T00:11:13;46.73;;;17.40;;
70420;SDS011;57848;51.938;15.520;2023-02-15T00:13:40;46.08;;;18.98;;
70420;SDS011;57848;51.938;15.520;2023-02-15T00:16:11;55.57;;;19.63;;
70420;SDS011;57848;51.938;15.520;2023-02-15T00:18:38;52.78;;;19.52;;
70420;SDS011;57848;51.938;15.520;2023-02-15T00:21:08;52.47;;;19.85;;
70420;SDS011;57848;51.938;15.520;2023-02-15T00:23:34;45.47;;;18.65;;
70420;SDS011;57848;51.938;15.520;2023-02-15T00:26:07;48.50;;;21.00;;
70420;SDS011;57848;51.938;15.520;2023-02-15T00:28:34;51.92;;;20.67;;
70420;SDS011;57848;51.938;15.520;2023-02-15T00:31:07;49.65;;;19.50;;
70420;SDS011;57848;51.938;15.520;2023-02-15T00:33:35;50.63;;;19.80;;
70420;SDS011;57848;51.938;15.520;2023-02-15T00:36:01;47.67;;;18.88;;
70420;SDS011;57848;51.938;15.520;2023-02-15T00:38:30;47.83;;;19.15;;
70420;SDS011;57848;51.938;15.520;2023-02-15T00:40:56;51.00;;;19.55;;
70420;SDS011;57848;51.938;15.520;2023-02-15T00:43:23;50.47;;;19.52;;
70420;SDS011;57848;51.938;15.520;2023-02-15T00:45:49;50.23;;;19.53;;
70420;SDS011;57848;51.938;15.520;2023-02-15T00:48:15;50.95;;;20.10;;
70420;SDS011;57848;51.938;15.520;2023-02-15T00:50:40;51.17;;;20.10;;
70420;SDS011;57848;51.938;15.520;2023-02-15T00:53:06;48.33;;;18.23;;
70420;SDS011;57848;51.938;15.520;2023-02-15T00:55:31;43.00;;;18.30;;
70420;SDS011;57848;51.938;15.520;2023-02-15T00:57:56;48.27;;;19.40;;
70420;SDS011;57848;51.938;15.520;2023-02-15T01:00:22;49.63;;;19.33;;
70420;SDS011;57848;51.938;15.520;2023-02-15T01:02:48;49.33;;;18.75;;
70420;SDS011;57848;51.938;15.520;2023-02-15T01:05:13;50.90;;;20.20;;
70420;SDS011;57848;51.938;15.520;2023-02-15T01:07:39;46.13;;;18.17;;
70420;SDS011;57848;51.938;15.520;2023-02-15T01:10:05;50.53;;;17.60;;
70420;SDS011;57848;51.938;15.520;2023-02-15T01:12:32;46.30;;;17.63;;
70420;SDS011;57848;51.938;15.520;2023-02-15T01:14:57;48.00;;;16.63;;
70420;SDS011;57848;51.938;15.520;2023-02-15T01:17:24;42.13;;;16.43;;
70420;SDS011;57848;51.938;15.520;2023-02-15T01:19:49;44.20;;;16.88;;
70420;SDS011;57848;51.938;15.520;2023-02-15T01:22:18;51.23;;;17.63;;
70420;SDS011;57848;51.938;15.520;2023-02-15T01:24:43;44.03;;;17.52;;
70420;SDS011;57848;51.938;15.520;2023-02-15T01:27:09;48.83;;;18.30;;
70420;SDS011;57848;51.938;15.520;2023-02-15T01:29:34;55.83;;;20.07;;
70420;SDS011;57848;51.938;15.520;2023-02-15T01:32:00;51.30;;;19.03;;
70420;SDS011;57848;51.938;15.520;2023-02-15T01:34:25;43.30;;;17.37;;
70420;SDS011;57848;51.938;15.520;2023-02-15T01:36:51;51.53;;;18.67;;
70420;SDS011;57848;51.938;15.520;2023-02-15T01:39:16;48.63;;;18.63;;
70420;SDS011;57848;51.938;15.520;2023-02-15T01:41:41;48.33;;;17.40;;
70420;SDS011;57848;51.938;15.520;2023-02-15T01:47:14;41.53;;;16.85;;
70420;SDS011;57848;51.938;15.520;2023-02-15T01:49:43;42.13;;;17.60;;
70420;SDS011;57848;51.938;15.520;2023-02-15T01:52:10;43.78;;;17.15;;
70420;SDS011;57848;51.938;15.520;2023-02-15T01:54:39;43.47;;;16.13;;
70420;SDS011;57848;51.938;15.520;2023-02-15T01:57:08;45.55;;;17.58;;
70420;SDS011;57848;51.938;15.520;2023-02-15T01:59:37;44.90;;;17.00;;
70420;SDS011;57848;51.938;15.520;2023-02-15T02:02:06;41.87;;;16.23;;
70420;SDS011;57848;51.938;15.520;2023-02-15T02:04:48;48.17;;;17.67;;
70420;SDS011;57848;51.938;15.520;2023-02-15T02:07:18;45.50;;;17.48;;
70420;SDS011;57848;51.938;15.520;2023-02-15T02:09:46;43.63;;;17.27;;
70420;SDS011;57848;51.938;15.520;2023-02-15T02:12:12;41.55;;;17.15;;
70420;SDS011;57848;51.938;15.520;2023-02-15T02:14:38;43.27;;;16.80;;
70420;SDS011;57848;51.938;15.520;2023-02-15T02:17:07;45.10;;;16.98;;
70420;SDS011;57848;51.938;15.520;2023-02-15T02:35:53;48.20;;;17.42;;
70420;SDS011;57848;51.938;15.520;2023-02-15T02:38:32;51.95;;;17.17;;
70420;SDS011;57848;51.938;15.520;2023-02-15T02:44:04;43.28;;;16.40;;
70420;SDS011;57848;51.938;15.520;2023-02-15T02:46:42;44.55;;;16.65;;
70420;SDS011;57848;51.938;15.520;2023-02-15T02:49:28;46.92;;;17.60;;
70420;SDS011;57848;51.938;15.520;2023-02-15T02:52:00;50.40;;;18.85;;
70420;SDS011;57848;51.938;15.520;2023-02-15T02:54:27;43.33;;;17.00;;
70420;SDS011;57848;51.938;15.520;2023-02-15T02:56:53;45.35;;;16.65;;
70420;SDS011;57848;51.938;15.520;2023-02-15T02:59:25;47.95;;;18.10;;
70420;SDS011;57848;51.938;15.520;2023-02-15T03:02:07;54.33;;;18.65;;
70420;SDS011;57848;51.938;15.520;2023-02-15T03:04:39;50.45;;;16.63;;
70420;SDS011;57848;51.938;15.520;2023-02-15T03:07:11;44.13;;;16.77;;
70420;SDS011;57848;51.938;15.520;2023-02-15T03:09:43;46.92;;;18.27;;
70420;SDS011;57848;51.938;15.520;2023-02-15T03:12:15;54.47;;;18.73;;
70420;SDS011;57848;51.938;15.520;2023-02-15T03:14:48;50.38;;;18.50;;
70420;SDS011;57848;51.938;15.520;2023-02-15T03:17:17;47.10;;;17.83;;
70420;SDS011;57848;51.938;15.520;2023-02-15T03:19:45;46.90;;;16.47;;
70420;SDS011;57848;51.938;15.520;2023-02-15T03:22:18;46.42;;;19.55;;
70420;SDS011;57848;51.938;15.520;2023-02-15T03:24:55;47.75;;;20.50;;
70420;SDS011;57848;51.938;15.520;2023-02-15T03:27:29;46.67;;;17.83;;
70420;SDS011;57848;51.938;15.520;2023-02-15T03:30:00;44.88;;;18.05;;
70420;SDS011;57848;51.938;15.520;2023-02-15T03:32:29;55.17;;;21.60;;
70420;SDS011;57848;51.938;15.520;2023-02-15T03:34:55;58.53;;;19.25;;
70420;SDS011;57848;51.938;15.520;2023-02-15T03:37:38;52.28;;;19.35;;
70420;SDS011;57848;51.938;15.520;2023-02-15T03:40:21;47.20;;;19.37;;
70420;SDS011;57848;51.938;15.520;2023-02-15T03:43:15;53.00;;;19.45;;
70420;SDS011;57848;51.938;15.520;2023-02-15T03:45:47;47.92;;;18.40;;
70420;SDS011;57848;51.938;15.520;2023-02-15T03:48:22;50.00;;;17.25;;
70420;SDS011;57848;51.938;15.520;2023-02-15T03:50:55;49.10;;;19.52;;
70420;SDS011;57848;51.938;15.520;2023-02-15T03:53:42;56.27;;;18.33;;
70420;SDS011;57848;51.938;15.520;2023-02-15T03:56:08;47.38;;;19.00;;
70420;SDS011;57848;51.938;15.520;2023-02-15T03:58:34;50.03;;;19.30;;
70420;SDS011;57848;51.938;15.520;2023-02-15T04:01:25;52.65;;;20.35;;
70420;SDS011;57848;51.938;15.520;2023-02-15T04:04:17;45.45;;;17.83;;
70420;SDS011;57848;51.938;15.520;2023-02-15T04:06:43;49.08;;;18.45;;
70420;SDS011;57848;51.938;15.520;2023-02-15T04:09:09;53.60;;;18.67;;
70420;SDS011;57848;51.938;15.520;2023-02-15T04:11:53;49.90;;;18.55;;
70420;SDS011;57848;51.938;15.520;2023-02-15T04:14:18;58.50;;;20.37;;
70420;SDS011;57848;51.938;15.520;2023-02-15T04:17:04;54.13;;;19.00;;
70420;SDS011;57848;51.938;15.520;2023-02-15T04:19:30;57.23;;;20.80;;
70420;SDS011;57848;51.938;15.520;2023-02-15T04:22:14;49.85;;;18.83;;
70420;SDS011;57848;51.938;15.520;2023-02-15T04:24:58;59.03;;;20.70;;
70420;SDS011;57848;51.938;15.520;2023-02-15T04:27:39;59.35;;;21.05;;
70420;SDS011;57848;51.938;15.520;2023-02-15T04:30:09;57.60;;;21.00;;
70420;SDS011;57848;51.938;15.520;2023-02-15T04:32:36;59.03;;;22.33;;
70420;SDS011;57848;51.938;15.520;2023-02-15T04:35:02;56.20;;;22.15;;
70420;SDS011;57848;51.938;15.520;2023-02-15T04:37:28;54.92;;;22.15;;
70420;SDS011;57848;51.938;15.520;2023-02-15T04:39:54;56.20;;;22.00;;
70420;SDS011;57848;51.938;15.520;2023-02-15T04:42:19;56.30;;;22.07;;
70420;SDS011;57848;51.938;15.520;2023-02-15T04:44:45;55.20;;;20.73;;
70420;SDS011;57848;51.938;15.520;2023-02-15T04:47:10;56.60;;;20.97;;
70420;SDS011;57848;51.938;15.520;2023-02-15T04:49:35;57.03;;;22.27;;
70420;SDS011;57848;51.938;15.520;2023-02-15T04:52:01;55.60;;;21.13;;
70420;SDS011;57848;51.938;15.520;2023-02-15T04:54:26;57.80;;;22.37;;
70420;SDS011;57848;51.938;15.520;2023-02-15T04:56:52;60.45;;;22.30;;
70420;SDS011;57848;51.938;15.520;2023-02-15T04:59:17;57.67;;;21.80;;
70420;SDS011;57848;51.938;15.520;2023-02-15T05:01:42;61.87;;;20.93;;
70420;SDS011;57848;51.938;15.520;2023-02-15T05:04:08;58.83;;;22.50;;
70420;SDS011;57848;51.938;15.520;2023-02-15T05:06:34;55.75;;;22.33;;
70420;SDS011;57848;51.938;15.520;2023-02-15T05:08:59;58.10;;;22.23;;
70420;SDS011;57848;51.938;15.520;2023-02-15T05:11:25;57.70;;;22.50;;
70420;SDS011;57848;51.938;15.520;2023-02-15T05:13:51;62.37;;;23.10;;
70420;SDS011;57848;51.938;15.520;2023-02-15T05:16:16;63.00;;;22.70;;
70420;SDS011;57848;51.938;15.520;2023-02-15T05:18:42;58.33;;;21.20;;
70420;SDS011;57848;51.938;15.520;2023-02-15T05:21:07;61.90;;;21.60;;
70420;SDS011;57848;51.938;15.520;2023-02-15T05:23:32;62.57;;;22.77;;
70420;SDS011;57848;51.938;15.520;2023-02-15T05:25:58;59.30;;;22.35;;
70420;SDS011;57848;51.938;15.520;2023-02-15T05:28:42;63.30;;;21.40;;
70420;SDS011;57848;51.938;15.520;2023-02-15T05:31:09;65.05;;;21.58;;
70420;SDS011;57848;51.938;15.520;2023-02-15T05:33:36;53.70;;;20.27;;
70420;SDS011;57848;51.938;15.520;2023-02-15T05:36:02;59.05;;;21.05;;
70420;SDS011;57848;51.938;15.520;2023-02-15T05:38:28;59.88;;;22.38;;
70420;SDS011;57848;51.938;15.520;2023-02-15T05:40:54;60.77;;;22.80;;
70420;SDS011;57848;51.938;15.520;2023-02-15T05:43:20;55.95;;;21.55;;
70420;SDS011;57848;51.938;15.520;2023-02-15T05:45:46;66.63;;;24.83;;
70420;SDS011;57848;51.938;15.520;2023-02-15T05:48:16;64.73;;;22.50;;
70420;SDS011;57848;51.938;15.520;2023-02-15T05:50:43;64.82;;;24.05;;
70420;SDS011;57848;51.938;15.520;2023-02-15T05:53:09;69.60;;;23.15;;
70420;SDS011;57848;51.938;15.520;2023-02-15T05:55:37;61.23;;;22.77;;
70420;SDS011;57848;51.938;15.520;2023-02-15T05:58:03;66.07;;;22.87;;
70420;SDS011;57848;51.938;15.520;2023-02-15T06:00:29;62.35;;;24.13;;
70420;SDS011;57848;51.938;15.520;2023-02-15T06:02:54;59.80;;;22.87;;
70420;SDS011;57848;51.938;15.520;2023-02-15T06:05:20;62.33;;;23.53;;
70420;SDS011;57848;51.938;15.520;2023-02-15T06:07:45;66.77;;;23.73;;
70420;SDS011;57848;51.938;15.520;2023-02-15T06:10:11;60.53;;;23.45;;
70420;SDS011;57848;51.938;15.520;2023-02-15T06:12:36;58.10;;;22.07;;
70420;SDS011;57848;51.938;15.520;2023-02-15T06:15:02;58.77;;;21.93;;
70420;SDS011;57848;51.938;15.520;2023-02-15T06:17:28;66.45;;;24.45;;
70420;SDS011;57848;51.938;15.520;2023-02-15T06:19:53;61.73;;;22.97;;
70420;SDS011;57848;51.938;15.520;2023-02-15T06:22:19;65.05;;;24.38;;
70420;SDS011;57848;51.938;15.520;2023-02-15T06:24:45;63.47;;;22.27;;
70420;SDS011;57848;51.938;15.520;2023-02-15T06:27:11;63.42;;;23.83;;
70420;SDS011;57848;51.938;15.520;2023-02-15T06:29:36;60.40;;;22.93;;
70420;SDS011;57848;51.938;15.520;2023-02-15T06:32:02;70.72;;;25.48;;
70420;SDS011;57848;51.938;15.520;2023-02-15T06:34:27;60.60;;;23.37;;
70420;SDS011;57848;51.938;15.520;2023-02-15T06:36:52;66.67;;;24.03;;
70420;SDS011;57848;51.938;15.520;2023-02-15T06:39:18;66.43;;;23.87;;
70420;SDS011;57848;51.938;15.520;2023-02-15T06:41:43;68.17;;;23.87;;
70420;SDS011;57848;51.938;15.520;2023-02-15T06:44:09;60.38;;;22.85;;
70420;SDS011;57848;51.938;15.520;2023-02-15T06:46:34;69.67;;;24.33;;
70420;SDS011;57848;51.938;15.520;2023-02-15T06:48:59;65.47;;;22.90;;
70420;SDS011;57848;51.938;15.520;2023-02-15T06:51:25;69.13;;;23.27;;
70420;SDS011;57848;51.938;15.520;2023-02-15T06:53:50;69.97;;;23.55;;
70420;SDS011;57848;51.938;15.520;2023-02-15T06:56:16;64.43;;;24.07;;
70420;SDS011;57848;51.938;15.520;2023-02-15T06:58:41;66.47;;;24.30;;
70420;SDS011;57848;51.938;15.520;2023-02-15T07:01:07;70.38;;;25.10;;
70420;SDS011;57848;51.938;15.520;2023-02-15T07:03:34;63.90;;;22.90;;
70420;SDS011;57848;51.938;15.520;2023-02-15T07:06:01;67.73;;;22.57;;
70420;SDS011;57848;51.938;15.520;2023-02-15T07:08:28;68.00;;;24.83;;
70420;SDS011;57848;51.938;15.520;2023-02-15T07:10:54;69.20;;;25.70;;
70420;SDS011;57848;51.938;15.520;2023-02-15T07:13:40;70.35;;;26.00;;
70420;SDS011;57848;51.938;15.520;2023-02-15T07:16:07;62.53;;;24.77;;
70420;SDS011;57848;51.938;15.520;2023-02-15T07:18:33;57.75;;;22.08;;
70420;SDS011;57848;51.938;15.520;2023-02-15T07:20:59;67.90;;;25.73;;
70420;SDS011;57848;51.938;15.520;2023-02-15T07:23:24;69.43;;;24.42;;
70420;SDS011;57848;51.938;15.520;2023-02-15T07:25:56;60.83;;;24.07;;
70420;SDS011;57848;51.938;15.520;2023-02-15T07:28:25;71.40;;;26.13;;
70420;SDS011;57848;51.938;15.520;2023-02-15T07:30:50;72.73;;;26.63;;
70420;SDS011;57848;51.938;15.520;2023-02-15T07:33:16;64.72;;;24.75;;
70420;SDS011;57848;51.938;15.520;2023-02-15T07:35:58;64.40;;;26.77;;
70420;SDS011;57848;51.938;15.520;2023-02-15T07:38:26;68.50;;;24.13;;
70420;SDS011;57848;51.938;15.520;2023-02-15T07:40:58;71.25;;;25.38;;
70420;SDS011;57848;51.938;15.520;2023-02-15T07:43:24;74.25;;;26.63;;
70420;SDS011;57848;51.938;15.520;2023-02-15T07:45:50;68.53;;;27.07;;
70420;SDS011;57848;51.938;15.520;2023-02-15T07:48:15;69.97;;;28.27;;
70420;SDS011;57848;51.938;15.520;2023-02-15T07:50:40;73.50;;;27.27;;
70420;SDS011;57848;51.938;15.520;2023-02-15T07:53:06;75.38;;;27.13;;
70420;SDS011;57848;51.938;15.520;2023-02-15T07:55:31;71.73;;;24.57;;
70420;SDS011;57848;51.938;15.520;2023-02-15T07:57:56;68.30;;;26.27;;
70420;SDS011;57848;51.938;15.520;2023-02-15T08:00:22;69.93;;;24.63;;
70420;SDS011;57848;51.938;15.520;2023-02-15T08:02:53;64.43;;;24.27;;
70420;SDS011;57848;51.938;15.520;2023-02-15T08:05:41;69.97;;;25.15;;
70420;SDS011;57848;51.938;15.520;2023-02-15T08:08:08;68.72;;;25.30;;
70420;SDS011;57848;51.938;15.520;2023-02-15T08:10:57;62.87;;;23.43;;
70420;SDS011;57848;51.938;15.520;2023-02-15T08:13:47;60.35;;;24.30;;
70420;SDS011;57848;51.938;15.520;2023-02-15T08:16:23;62.45;;;22.83;;
70420;SDS011;57848;51.938;15.520;2023-02-15T08:18:57;66.03;;;23.25;;
70420;SDS011;57848;51.938;15.520;2023-02-15T08:21:25;58.60;;;22.10;;
70420;SDS011;57848;51.938;15.520;2023-02-15T08:23:52;59.37;;;22.83;;
70420;SDS011;57848;51.938;15.520;2023-02-15T08:26:17;62.60;;;23.70;;
70420;SDS011;57848;51.938;15.520;2023-02-15T08:28:43;57.33;;;21.83;;
70420;SDS011;57848;51.938;15.520;2023-02-15T08:31:10;59.35;;;22.60;;
70420;SDS011;57848;51.938;15.520;2023-02-15T08:33:36;55.17;;;22.67;;
70420;SDS011;57848;51.938;15.520;2023-02-15T08:36:04;53.83;;;20.27;;
70420;SDS011;57848;51.938;15.520;2023-02-15T08:38:31;61.08;;;22.55;;
70420;SDS011;57848;51.938;15.520;2023-02-15T08:40:57;53.80;;;22.60;;
70420;SDS011;57848;51.938;15.520;2023-02-15T08:43:22;58.13;;;22.97;;
70420;SDS011;57848;51.938;15.520;2023-02-15T08:45:48;54.13;;;21.63;;
70420;SDS011;57848;51.938;15.520;2023-02-15T08:48:13;57.17;;;22.75;;
70420;SDS011;57848;51.938;15.520;2023-02-15T08:50:39;59.80;;;23.10;;
70420;SDS011;57848;51.938;15.520;2023-02-15T08:53:04;52.00;;;22.97;;
70420;SDS011;57848;51.938;15.520;2023-02-15T08:55:29;61.43;;;22.77;;
70420;SDS011;57848;51.938;15.520;2023-02-15T08:57:55;59.50;;;23.20;;
70420;SDS011;57848;51.938;15.520;2023-02-15T09:00:21;58.47;;;21.75;;
70420;SDS011;57848;51.938;15.520;2023-02-15T09:02:47;57.67;;;22.90;;
70420;SDS011;57848;51.938;15.520;2023-02-15T09:05:13;55.63;;;22.08;;
70420;SDS011;57848;51.938;15.520;2023-02-15T09:07:38;57.90;;;21.23;;
70420;SDS011;57848;51.938;15.520;2023-02-15T09:10:04;55.33;;;22.27;;
70420;SDS011;57848;51.938;15.520;2023-02-15T09:12:31;58.67;;;22.63;;
70420;SDS011;57848;51.938;15.520;2023-02-15T09:14:56;60.17;;;22.60;;
70420;SDS011;57848;51.938;15.520;2023-02-15T09:17:21;61.10;;;23.03;;
70420;SDS011;57848;51.938;15.520;2023-02-15T09:19:47;56.13;;;22.97;;
70420;SDS011;57848;51.938;15.520;2023-02-15T09:22:12;53.40;;;21.97;;
70420;SDS011;57848;51.938;15.520;2023-02-15T09:24:38;53.23;;;22.57;;
70420;SDS011;57848;51.938;15.520;2023-02-15T09:27:03;56.23;;;23.53;;
70420;SDS011;57848;51.938;15.520;2023-02-15T09:29:28;52.58;;;23.33;;
70420;SDS011;57848;51.938;15.520;2023-02-15T09:31:54;65.77;;;24.93;;
70420;SDS011;57848;51.938;15.520;2023-02-15T09:34:21;57.53;;;24.03;;
70420;SDS011;57848;51.938;15.520;2023-02-15T09:36:47;54.63;;;22.90;;
70420;SDS011;57848;51.938;15.520;2023-02-15T09:41:51;55.65;;;21.17;;
70420;SDS011;57848;51.938;15.520;2023-02-15T09:58:37;52.20;;;19.80;;
70420;SDS011;57848;51.938;15.520;2023-02-15T10:01:17;53.42;;;21.63;;
70420;SDS011;57848;51.938;15.520;2023-02-15T10:09:40;46.55;;;20.75;;
70420;SDS011;57848;51.938;15.520;2023-02-15T10:13:25;50.67;;;21.73;;
70420;SDS011;57848;51.938;15.520;2023-02-15T10:21:07;46.75;;;21.35;;
70420;SDS011;57848;51.938;15.520;2023-02-15T10:26:44;44.83;;;20.70;;
70420;SDS011;57848;51.938;15.520;2023-02-15T10:34:39;43.90;;;21.50;;
70420;SDS011;57848;51.938;15.520;2023-02-15T10:40:19;42.30;;;20.77;;
70420;SDS011;57848;51.938;15.520;2023-02-15T10:45:43;40.95;;;20.55;;
70420;SDS011;57848;51.938;15.520;2023-02-15T10:50:52;41.03;;;20.77;;
70420;SDS011;57848;51.938;15.520;2023-02-15T11:01:55;38.53;;;21.00;;
70420;SDS011;57848;51.938;15.520;2023-02-15T11:04:50;38.38;;;19.83;;
70420;SDS011;57848;51.938;15.520;2023-02-15T11:07:24;38.83;;;20.03;;
70420;SDS011;57848;51.938;15.520;2023-02-15T11:10:38;33.97;;;19.38;;
70420;SDS011;57848;51.938;15.520;2023-02-15T11:12:45;36.67;;;20.60;;
70420;SDS011;57848;51.938;15.520;2023-02-15T11:15:22;36.28;;;19.35;;
70420;SDS011;57848;51.938;15.520;2023-02-15T11:18:02;36.15;;;20.13;;
70420;SDS011;57848;51.938;15.520;2023-02-15T11:23:17;36.88;;;19.58;;
70420;SDS011;57848;51.938;15.520;2023-02-15T11:25:52;34.80;;;19.00;;
70420;SDS011;57848;51.938;15.520;2023-02-15T11:28:48;34.67;;;20.08;;
70420;SDS011;57848;51.938;15.520;2023-02-15T11:31:19;36.38;;;20.38;;
70420;SDS011;57848;51.938;15.520;2023-02-15T11:33:49;34.37;;;19.47;;
70420;SDS011;57848;51.938;15.520;2023-02-15T11:36:25;37.65;;;21.10;;
70420;SDS011;57848;51.938;15.520;2023-02-15T11:39:10;33.40;;;19.90;;
70420;SDS011;57848;51.938;15.520;2023-02-15T11:41:39;34.13;;;18.90;;
70420;SDS011;57848;51.938;15.520;2023-02-15T11:44:19;33.70;;;19.88;;
70420;SDS011;57848;51.938;15.520;2023-02-15T11:46:48;35.03;;;20.33;;
70420;SDS011;57848;51.938;15.520;2023-02-15T11:52:02;33.92;;;19.75;;
70420;SDS011;57848;51.938;15.520;2023-02-15T11:54:31;34.92;;;20.05;;
70420;SDS011;57848;51.938;15.520;2023-02-15T11:57:06;32.10;;;19.42;;
70420;SDS011;57848;51.938;15.520;2023-02-15T11:59:36;35.10;;;21.23;;
70420;SDS011;57848;51.938;15.520;2023-02-15T12:02:11;30.63;;;19.17;;
70420;SDS011;57848;51.938;15.520;2023-02-15T12:04:41;31.80;;;19.33;;
70420;SDS011;57848;51.938;15.520;2023-02-15T12:09:48;32.80;;;18.63;;
70420;SDS011;57848;51.938;15.520;2023-02-15T12:12:30;32.67;;;19.10;;
70420;SDS011;57848;51.938;15.520;2023-02-15T12:14:58;31.13;;;18.83;;
70420;SDS011;57848;51.938;15.520;2023-02-15T12:17:59;32.13;;;19.67;;
70420;SDS011;57848;51.938;15.520;2023-02-15T12:22:52;27.80;;;17.83;;
70420;SDS011;57848;51.938;15.520;2023-02-15T12:25:29;28.73;;;18.17;;
70420;SDS011;57848;51.938;15.520;2023-02-15T12:28:01;28.13;;;18.00;;
70420;SDS011;57848;51.938;15.520;2023-02-15T12:30:31;30.37;;;17.27;;
70420;SDS011;57848;51.938;15.520;2023-02-15T12:33:10;32.78;;;20.48;;
70420;SDS011;57848;51.938;15.520;2023-02-15T12:35:47;31.90;;;18.48;;
70420;SDS011;57848;51.938;15.520;2023-02-15T12:38:26;32.70;;;19.10;;
70420;SDS011;57848;51.938;15.520;2023-02-15T12:40:57;33.05;;;19.05;;
70420;SDS011;57848;51.938;15.520;2023-02-15T12:43:33;32.57;;;17.23;;
70420;SDS011;57848;51.938;15.520;2023-02-15T12:51:42;32.80;;;17.58;;
70420;SDS011;57848;51.938;15.520;2023-02-15T12:54:25;30.88;;;16.33;;
70420;SDS011;57848;51.938;15.520;2023-02-15T12:56:58;35.50;;;17.63;;
70420;SDS011;57848;51.938;15.520;2023-02-15T12:59:24;32.17;;;16.38;;
70420;SDS011;57848;51.938;15.520;2023-02-15T13:01:51;30.15;;;15.10;;
70420;SDS011;57848;51.938;15.520;2023-02-15T13:04:25;32.63;;;16.35;;
70420;SDS011;57848;51.938;15.520;2023-02-15T13:06:57;35.50;;;16.77;;
70420;SDS011;57848;51.938;15.520;2023-02-15T13:11:56;32.33;;;14.95;;
70420;SDS011;57848;51.938;15.520;2023-02-15T13:14:25;33.20;;;14.27;;
70420;SDS011;57848;51.938;15.520;2023-02-15T13:16:57;31.52;;;14.75;;
70420;SDS011;57848;51.938;15.520;2023-02-15T13:22:19;31.03;;;15.10;;
70420;SDS011;57848;51.938;15.520;2023-02-15T13:24:51;31.73;;;15.63;;
70420;SDS011;57848;51.938;15.520;2023-02-15T13:27:21;31.98;;;15.13;;
70420;SDS011;57848;51.938;15.520;2023-02-15T13:29:50;34.58;;;15.73;;
70420;SDS011;57848;51.938;15.520;2023-02-15T13:32:24;33.55;;;16.15;;
70420;SDS011;57848;51.938;15.520;2023-02-15T13:34:50;35.27;;;16.20;;
70420;SDS011;57848;51.938;15.520;2023-02-15T13:55:33;36.33;;;16.48;;
70420;SDS011;57848;51.938;15.520;2023-02-15T14:17:23;36.20;;;16.00;;
70420;SDS011;57848;51.938;15.520;2023-02-15T14:26:16;32.60;;;17.00;;
70420;SDS011;57848;51.938;15.520;2023-02-15T14:28:57;32.57;;;15.83;;
70420;SDS011;57848;51.938;15.520;2023-02-15T14:31:45;34.40;;;16.27;;
70420;SDS011;57848;51.938;15.520;2023-02-15T14:34:18;31.45;;;15.07;;
70420;SDS011;57848;51.938;15.520;2023-02-15T14:36:47;32.60;;;16.77;;
70420;SDS011;57848;51.938;15.520;2023-02-15T14:42:43;32.13;;;16.40;;
70420;SDS011;57848;51.938;15.520;2023-02-15T14:45:19;33.97;;;16.33;;
70420;SDS011;57848;51.938;15.520;2023-02-15T14:47:57;33.45;;;16.02;;
70420;SDS011;57848;51.938;15.520;2023-02-15T14:50:37;32.47;;;16.42;;
70420;SDS011;57848;51.938;15.520;2023-02-15T14:55:41;33.90;;;15.97;;
70420;SDS011;57848;51.938;15.520;2023-02-15T14:58:10;35.90;;;16.07;;
70420;SDS011;57848;51.938;15.520;2023-02-15T15:00:38;33.27;;;15.53;;
70420;SDS011;57848;51.938;15.520;2023-02-15T15:03:12;33.35;;;15.38;;
70420;SDS011;57848;51.938;15.520;2023-02-15T15:05:50;31.65;;;15.27;;
70420;SDS011;57848;51.938;15.520;2023-02-15T15:08:38;31.92;;;15.10;;
70420;SDS011;57848;51.938;15.520;2023-02-15T15:13:56;28.00;;;13.77;;
70420;SDS011;57848;51.938;15.520;2023-02-15T15:18:48;30.03;;;14.87;;
70420;SDS011;57848;51.938;15.520;2023-02-15T15:44:05;35.47;;;14.70;;
70420;SDS011;57848;51.938;15.520;2023-02-15T15:49:16;30.42;;;14.77;;
70420;SDS011;57848;51.938;15.520;2023-02-15T15:51:44;30.70;;;14.40;;
70420;SDS011;57848;51.938;15.520;2023-02-15T15:54:20;30.35;;;14.88;;
70420;SDS011;57848;51.938;15.520;2023-02-15T15:56:49;35.77;;;14.97;;
70420;SDS011;57848;51.938;15.520;2023-02-15T15:59:22;33.30;;;15.43;;
70420;SDS011;57848;51.938;15.520;2023-02-15T16:01:50;33.55;;;14.85;;
70420;SDS011;57848;51.938;15.520;2023-02-15T16:04:22;34.00;;;15.87;;
70420;SDS011;57848;51.938;15.520;2023-02-15T16:06:49;34.08;;;15.13;;
70420;SDS011;57848;51.938;15.520;2023-02-15T16:09:25;38.27;;;16.23;;
70420;SDS011;57848;51.938;15.520;2023-02-15T16:11:52;35.58;;;18.10;;
70420;SDS011;57848;51.938;15.520;2023-02-15T16:14:29;32.95;;;17.38;;
70420;SDS011;57848;51.938;15.520;2023-02-15T16:16:57;41.38;;;18.52;;
70420;SDS011;57848;51.938;15.520;2023-02-15T16:19:29;43.78;;;21.27;;
70420;SDS011;57848;51.938;15.520;2023-02-15T16:21:59;36.33;;;19.47;;
70420;SDS011;57848;51.938;15.520;2023-02-15T16:27:11;37.63;;;18.00;;
70420;SDS011;57848;51.938;15.520;2023-02-15T16:29:40;40.03;;;18.20;;
70420;SDS011;57848;51.938;15.520;2023-02-15T16:32:14;38.70;;;18.90;;
70420;SDS011;57848;51.938;15.520;2023-02-15T16:35:17;36.60;;;18.52;;
70420;SDS011;57848;51.938;15.520;2023-02-15T16:37:38;38.85;;;18.25;;
70420;SDS011;57848;51.938;15.520;2023-02-15T16:40:04;43.63;;;20.13;;
70420;SDS011;57848;51.938;15.520;2023-02-15T16:42:30;46.08;;;21.42;;
70420;SDS011;57848;51.938;15.520;2023-02-15T16:44:57;49.93;;;21.17;;
70420;SDS011;57848;51.938;15.520;2023-02-15T16:47:30;50.08;;;22.48;;
70420;SDS011;57848;51.938;15.520;2023-02-15T16:49:59;48.33;;;21.23;;
70420;SDS011;57848;51.938;15.520;2023-02-15T16:52:27;52.67;;;23.52;;
70420;SDS011;57848;51.938;15.520;2023-02-15T16:54:58;43.72;;;20.52;;
70420;SDS011;57848;51.938;15.520;2023-02-15T16:57:27;45.58;;;21.80;;
70420;SDS011;57848;51.938;15.520;2023-02-15T17:00:16;45.92;;;20.27;;
70420;SDS011;57848;51.938;15.520;2023-02-15T17:02:59;40.90;;;19.50;;
70420;SDS011;57848;51.938;15.520;2023-02-15T17:05:33;39.67;;;18.70;;
70420;SDS011;57848;51.938;15.520;2023-02-15T17:10:39;40.78;;;18.55;;
70420;SDS011;57848;51.938;15.520;2023-02-15T17:13:16;42.83;;;18.77;;
70420;SDS011;57848;51.938;15.520;2023-02-15T17:18:23;40.72;;;18.45;;
70420;SDS011;57848;51.938;15.520;2023-02-15T17:20:50;39.63;;;17.33;;
70420;SDS011;57848;51.938;15.520;2023-02-15T17:23:30;38.80;;;17.58;;
70420;SDS011;57848;51.938;15.520;2023-02-15T17:25:58;45.92;;;19.45;;
70420;SDS011;57848;51.938;15.520;2023-02-15T17:28:27;47.80;;;22.53;;
70420;SDS011;57848;51.938;15.520;2023-02-15T17:30:55;52.13;;;23.00;;
70420;SDS011;57848;51.938;15.520;2023-02-15T17:33:23;50.28;;;22.08;;